sensor_id;sensor_type;location;lat;lon;timestamp;temperature;humidity
75964;DHT22;65820;44.726;37.764;2023-02-02T00:04:25;19.56;42.86
75964;DHT22;65820;44.726;37.764;2023-02-02T00:10:01;19.54;42.97
75964;DHT22;65820;44.726;37.764;2023-02-02T00:11:03;19.54;43.01
75964;DHT22;65820;44.726;37.764;2023-02-02T00:17:59;19.53;42.81
75964;DHT22;65820;44.726;37.764;2023-02-02T00:19:07;19.54;42.90
75964;DHT22;65820;44.726;37.764;2023-02-02T00:21:04;19.54;42.97
75964;DHT22;65820;44.726;37.764;2023-02-02T00:23:16;19.53;42.90
75964;DHT22;65820;44.726;37.764;2023-02-02T00:24:18;19.53;42.89
75964;DHT22;65820;44.726;37.764;2023-02-02T00:25:19;19.54;42.96
75964;DHT22;65820;44.726;37.764;2023-02-02T00:28:44;19.54;42.97
75964;DHT22;65820;44.726;37.764;2023-02-02T00:29:45;19.52;42.83
75964;DHT22;65820;44.726;37.764;2023-02-02T00:32:30;19.53;42.84
75964;DHT22;65820;44.726;37.764;2023-02-02T00:34:20;19.53;42.86
75964;DHT22;65820;44.726;37.764;2023-02-02T00:36:18;19.52;42.81
75964;DHT22;65820;44.726;37.764;2023-02-02T00:37:20;19.53;42.83
75964;DHT22;65820;44.726;37.764;2023-02-02T00:38:21;19.53;42.82
75964;DHT22;65820;44.726;37.764;2023-02-02T00:40:18;19.54;42.78
75964;DHT22;65820;44.726;37.764;2023-02-02T00:41:20;19.53;42.80
75964;DHT22;65820;44.726;37.764;2023-02-02T00:42:21;19.54;42.84
75964;DHT22;65820;44.726;37.764;2023-02-02T00:43:22;19.55;42.74
75964;DHT22;65820;44.726;37.764;2023-02-02T00:45:12;19.54;42.75
75964;DHT22;65820;44.726;37.764;2023-02-02T00:48:56;19.55;42.86
75964;DHT22;65820;44.726;37.764;2023-02-02T00:49:57;19.55;42.73
75964;DHT22;65820;44.726;37.764;2023-02-02T00:50:58;19.55;42.68
75964;DHT22;65820;44.726;37.764;2023-02-02T00:56:14;19.55;42.69
75964;DHT22;65820;44.726;37.764;2023-02-02T00:58:03;19.54;42.73
75964;DHT22;65820;44.726;37.764;2023-02-02T01:00:18;19.53;42.87
75964;DHT22;65820;44.726;37.764;2023-02-02T01:02:16;19.54;42.63
75964;DHT22;65820;44.726;37.764;2023-02-02T01:04:05;19.54;42.81
75964;DHT22;65820;44.726;37.764;2023-02-02T01:05:08;19.54;42.65
75964;DHT22;65820;44.726;37.764;2023-02-02T01:07:12;19.55;42.67
75964;DHT22;65820;44.726;37.764;2023-02-02T01:08:13;19.55;42.72
75964;DHT22;65820;44.726;37.764;2023-02-02T01:10:04;19.55;42.66
75964;DHT22;65820;44.726;37.764;2023-02-02T01:11:54;19.54;42.76
75964;DHT22;65820;44.726;37.764;2023-02-02T01:14:39;19.55;42.75
75964;DHT22;65820;44.726;37.764;2023-02-02T01:15:40;19.55;42.68
75964;DHT22;65820;44.726;37.764;2023-02-02T01:16:41;19.54;42.74
75964;DHT22;65820;44.726;37.764;2023-02-02T01:19:19;19.55;42.74
75964;DHT22;65820;44.726;37.764;2023-02-02T01:22:26;19.55;42.75
75964;DHT22;65820;44.726;37.764;2023-02-02T01:24:15;19.54;42.72
75964;DHT22;65820;44.726;37.764;2023-02-02T01:26:13;19.54;42.73
75964;DHT22;65820;44.726;37.764;2023-02-02T01:28:17;19.53;42.62
75964;DHT22;65820;44.726;37.764;2023-02-02T01:32:20;19.53;42.72
75964;DHT22;65820;44.726;37.764;2023-02-02T01:33:22;19.54;42.65
75964;DHT22;65820;44.726;37.764;2023-02-02T01:38:02;19.53;42.71
75964;DHT22;65820;44.726;37.764;2023-02-02T01:39:04;19.53;42.79
75964;DHT22;65820;44.726;37.764;2023-02-02T01:40:06;19.52;42.71
75964;DHT22;65820;44.726;37.764;2023-02-02T01:41:15;19.52;42.68
75964;DHT22;65820;44.726;37.764;2023-02-02T01:42:20;19.53;42.73
75964;DHT22;65820;44.726;37.764;2023-02-02T01:43:29;19.53;42.64
75964;DHT22;65820;44.726;37.764;2023-02-02T01:45:08;19.53;42.69
75964;DHT22;65820;44.726;37.764;2023-02-02T01:49:11;19.52;42.68
75964;DHT22;65820;44.726;37.764;2023-02-02T01:55:54;19.51;42.77
75964;DHT22;65820;44.726;37.764;2023-02-02T02:05:15;19.48;42.76
75964;DHT22;65820;44.726;37.764;2023-02-02T02:06:19;19.48;42.67
75964;DHT22;65820;44.726;37.764;2023-02-02T02:07:21;19.48;42.69
75964;DHT22;65820;44.726;37.764;2023-02-02T02:09:34;19.50;42.68
75964;DHT22;65820;44.726;37.764;2023-02-02T02:11:52;19.50;42.58
75964;DHT22;65820;44.726;37.764;2023-02-02T02:12:53;19.48;42.68
75964;DHT22;65820;44.726;37.764;2023-02-02T02:13:56;19.48;42.65
75964;DHT22;65820;44.726;37.764;2023-02-02T02:15:19;19.50;42.61
75964;DHT22;65820;44.726;37.764;2023-02-02T02:18:43;19.50;42.78
75964;DHT22;65820;44.726;37.764;2023-02-02T02:26:25;19.48;42.68
75964;DHT22;65820;44.726;37.764;2023-02-02T02:31:23;19.50;42.55
75964;DHT22;65820;44.726;37.764;2023-02-02T02:33:48;19.50;42.61
75964;DHT22;65820;44.726;37.764;2023-02-02T02:36:03;19.50;42.49
75964;DHT22;65820;44.726;37.764;2023-02-02T02:38:28;19.50;42.57
75964;DHT22;65820;44.726;37.764;2023-02-02T02:39:34;19.51;42.55
75964;DHT22;65820;44.726;37.764;2023-02-02T02:41:40;19.50;42.45
75964;DHT22;65820;44.726;37.764;2023-02-02T02:42:45;19.51;42.55
75964;DHT22;65820;44.726;37.764;2023-02-02T02:43:55;19.50;42.63
75964;DHT22;65820;44.726;37.764;2023-02-02T02:45:01;19.48;42.53
75964;DHT22;65820;44.726;37.764;2023-02-02T02:46:04;19.51;42.39
75964;DHT22;65820;44.726;37.764;2023-02-02T02:50:25;19.48;42.54
75964;DHT22;65820;44.726;37.764;2023-02-02T02:52:22;19.48;42.63
75964;DHT22;65820;44.726;37.764;2023-02-02T02:55:00;19.50;42.45
75964;DHT22;65820;44.726;37.764;2023-02-02T02:56:11;19.48;42.46
75964;DHT22;65820;44.726;37.764;2023-02-02T03:01:59;19.47;42.61
75964;DHT22;65820;44.726;37.764;2023-02-02T03:04:09;19.47;42.40
75964;DHT22;65820;44.726;37.764;2023-02-02T03:07:51;19.48;42.44
75964;DHT22;65820;44.726;37.764;2023-02-02T03:12:19;19.47;42.48
75964;DHT22;65820;44.726;37.764;2023-02-02T03:13:20;19.48;42.53
75964;DHT22;65820;44.726;37.764;2023-02-02T03:14:22;19.47;42.64
75964;DHT22;65820;44.726;37.764;2023-02-02T03:15:23;19.46;42.57
75964;DHT22;65820;44.726;37.764;2023-02-02T03:16:24;19.47;42.47
75964;DHT22;65820;44.726;37.764;2023-02-02T03:19:02;19.46;42.58
75964;DHT22;65820;44.726;37.764;2023-02-02T03:20:04;19.47;42.47
75964;DHT22;65820;44.726;37.764;2023-02-02T03:21:06;19.47;42.45
75964;DHT22;65820;44.726;37.764;2023-02-02T03:22:07;19.47;42.42
75964;DHT22;65820;44.726;37.764;2023-02-02T03:23:09;19.47;42.45
75964;DHT22;65820;44.726;37.764;2023-02-02T03:25:06;19.48;42.49
75964;DHT22;65820;44.726;37.764;2023-02-02T03:26:08;19.48;42.47
75964;DHT22;65820;44.726;37.764;2023-02-02T03:27:09;19.48;42.43
75964;DHT22;65820;44.726;37.764;2023-02-02T03:28:11;19.48;42.33
75964;DHT22;65820;44.726;37.764;2023-02-02T03:29:13;19.48;42.36
75964;DHT22;65820;44.726;37.764;2023-02-02T03:30:14;19.50;42.43
75964;DHT22;65820;44.726;37.764;2023-02-02T03:32:04;19.50;42.43
75964;DHT22;65820;44.726;37.764;2023-02-02T03:33:06;19.48;42.74
75964;DHT22;65820;44.726;37.764;2023-02-02T03:34:56;19.50;42.39
75964;DHT22;65820;44.726;37.764;2023-02-02T03:35:57;19.51;42.32
75964;DHT22;65820;44.726;37.764;2023-02-02T03:36:59;19.51;42.25
75964;DHT22;65820;44.726;37.764;2023-02-02T03:38:00;19.52;42.15
75964;DHT22;65820;44.726;37.764;2023-02-02T03:39:01;19.52;42.28
75964;DHT22;65820;44.726;37.764;2023-02-02T03:40:04;19.53;42.26
75964;DHT22;65820;44.726;37.764;2023-02-02T03:42:16;19.52;42.14
75964;DHT22;65820;44.726;37.764;2023-02-02T03:44:09;19.51;42.91
75964;DHT22;65820;44.726;37.764;2023-02-02T03:45:10;19.50;42.66
75964;DHT22;65820;44.726;37.764;2023-02-02T03:46:11;19.52;42.87
75964;DHT22;65820;44.726;37.764;2023-02-02T03:47:13;19.51;42.68
75964;DHT22;65820;44.726;37.764;2023-02-02T03:49:02;19.51;42.59
75964;DHT22;65820;44.726;37.764;2023-02-02T03:50:05;19.52;42.56
75964;DHT22;65820;44.726;37.764;2023-02-02T03:51:55;19.51;42.23
75964;DHT22;65820;44.726;37.764;2023-02-02T03:52:56;19.51;42.31
75964;DHT22;65820;44.726;37.764;2023-02-02T03:53:57;19.51;42.23
75964;DHT22;65820;44.726;37.764;2023-02-02T03:54:58;19.52;42.39
75964;DHT22;65820;44.726;37.764;2023-02-02T03:56:00;19.50;42.28
75964;DHT22;65820;44.726;37.764;2023-02-02T03:57:01;19.51;42.13
75964;DHT22;65820;44.726;37.764;2023-02-02T03:58:03;19.51;42.39
75964;DHT22;65820;44.726;37.764;2023-02-02T03:59:04;19.52;42.48
75964;DHT22;65820;44.726;37.764;2023-02-02T04:00:06;19.54;42.55
75964;DHT22;65820;44.726;37.764;2023-02-02T04:01:13;19.55;42.56
75964;DHT22;65820;44.726;37.764;2023-02-02T04:02:15;19.55;42.58
75964;DHT22;65820;44.726;37.764;2023-02-02T04:03:16;19.55;42.97
75964;DHT22;65820;44.726;37.764;2023-02-02T04:04:18;19.58;43.01
75964;DHT22;65820;44.726;37.764;2023-02-02T04:05:19;19.58;43.41
75964;DHT22;65820;44.726;37.764;2023-02-02T04:06:21;19.60;42.98
75964;DHT22;65820;44.726;37.764;2023-02-02T04:07:23;19.60;42.47
75964;DHT22;65820;44.726;37.764;2023-02-02T04:08:24;19.61;42.31
75964;DHT22;65820;44.726;37.764;2023-02-02T04:09:25;19.62;41.94
75964;DHT22;65820;44.726;37.764;2023-02-02T04:10:27;19.61;42.32
75964;DHT22;65820;44.726;37.764;2023-02-02T04:11:28;19.61;42.23
75964;DHT22;65820;44.726;37.764;2023-02-02T04:12:30;19.61;42.68
75964;DHT22;65820;44.726;37.764;2023-02-02T04:13:31;19.62;42.61
75964;DHT22;65820;44.726;37.764;2023-02-02T04:16:57;19.62;42.24
75964;DHT22;65820;44.726;37.764;2023-02-02T04:17:58;19.63;42.78
75964;DHT22;65820;44.726;37.764;2023-02-02T04:18:59;19.67;43.19
75964;DHT22;65820;44.726;37.764;2023-02-02T04:20:49;19.70;44.09
75964;DHT22;65820;44.726;37.764;2023-02-02T04:21:50;19.73;44.95
75964;DHT22;65820;44.726;37.764;2023-02-02T04:22:53;19.74;45.22
75964;DHT22;65820;44.726;37.764;2023-02-02T04:24:43;19.77;45.19
75964;DHT22;65820;44.726;37.764;2023-02-02T04:25:51;19.80;45.48
75964;DHT22;65820;44.726;37.764;2023-02-02T04:26:52;19.82;45.60
75964;DHT22;65820;44.726;37.764;2023-02-02T04:27:53;19.84;45.64
75964;DHT22;65820;44.726;37.764;2023-02-02T04:28:55;19.84;44.57
75964;DHT22;65820;44.726;37.764;2023-02-02T04:29:56;19.86;44.48
75964;DHT22;65820;44.726;37.764;2023-02-02T04:30:58;19.88;45.06
75964;DHT22;65820;44.726;37.764;2023-02-02T04:31:59;19.90;45.48
75964;DHT22;65820;44.726;37.764;2023-02-02T04:33:00;19.91;44.77
75964;DHT22;65820;44.726;37.764;2023-02-02T04:34:02;19.92;45.26
75964;DHT22;65820;44.726;37.764;2023-02-02T04:35:04;19.92;45.41
75964;DHT22;65820;44.726;37.764;2023-02-02T04:36:05;19.92;45.48
75964;DHT22;65820;44.726;37.764;2023-02-02T04:37:07;19.94;45.10
75964;DHT22;65820;44.726;37.764;2023-02-02T04:38:09;19.96;45.09
75964;DHT22;65820;44.726;37.764;2023-02-02T04:39:11;19.97;44.97
75964;DHT22;65820;44.726;37.764;2023-02-02T04:40:13;19.97;44.74
75964;DHT22;65820;44.726;37.764;2023-02-02T04:41:14;19.98;44.91
75964;DHT22;65820;44.726;37.764;2023-02-02T04:42:16;19.98;44.70
75964;DHT22;65820;44.726;37.764;2023-02-02T04:44:14;20.00;44.60
75964;DHT22;65820;44.726;37.764;2023-02-02T04:45:16;20.01;44.29
75964;DHT22;65820;44.726;37.764;2023-02-02T04:46:17;20.01;44.61
75964;DHT22;65820;44.726;37.764;2023-02-02T04:47:18;20.02;44.64
75964;DHT22;65820;44.726;37.764;2023-02-02T04:48:20;20.02;44.06
75964;DHT22;65820;44.726;37.764;2023-02-02T04:49:21;20.01;44.53
75964;DHT22;65820;44.726;37.764;2023-02-02T04:50:22;20.02;44.64
75964;DHT22;65820;44.726;37.764;2023-02-02T04:51:24;20.03;44.56
75964;DHT22;65820;44.726;37.764;2023-02-02T04:52:25;20.03;44.42
75964;DHT22;65820;44.726;37.764;2023-02-02T04:53:28;20.04;44.38
75964;DHT22;65820;44.726;37.764;2023-02-02T04:54:30;20.04;44.64
75964;DHT22;65820;44.726;37.764;2023-02-02T04:55:35;20.04;44.63
75964;DHT22;65820;44.726;37.764;2023-02-02T04:56:37;20.04;44.37
75964;DHT22;65820;44.726;37.764;2023-02-02T04:57:39;20.05;44.45
75964;DHT22;65820;44.726;37.764;2023-02-02T04:58:41;20.05;44.26
75964;DHT22;65820;44.726;37.764;2023-02-02T04:59:43;20.05;44.23
75964;DHT22;65820;44.726;37.764;2023-02-02T05:00:44;20.05;44.13
75964;DHT22;65820;44.726;37.764;2023-02-02T05:01:45;20.06;44.18
75964;DHT22;65820;44.726;37.764;2023-02-02T05:02:47;20.06;43.89
75964;DHT22;65820;44.726;37.764;2023-02-02T05:03:49;20.06;43.96
75964;DHT22;65820;44.726;37.764;2023-02-02T05:04:50;20.09;43.93
75964;DHT22;65820;44.726;37.764;2023-02-02T05:06:00;20.07;43.69
75964;DHT22;65820;44.726;37.764;2023-02-02T05:07:01;20.10;44.15
75964;DHT22;65820;44.726;37.764;2023-02-02T05:08:03;20.09;44.08
75964;DHT22;65820;44.726;37.764;2023-02-02T05:09:09;20.09;43.84
75964;DHT22;65820;44.726;37.764;2023-02-02T05:10:11;20.10;43.91
75964;DHT22;65820;44.726;37.764;2023-02-02T05:11:14;20.11;43.82
75964;DHT22;65820;44.726;37.764;2023-02-02T05:12:16;20.09;43.96
75964;DHT22;65820;44.726;37.764;2023-02-02T05:13:17;20.11;43.53
75964;DHT22;65820;44.726;37.764;2023-02-02T05:14:21;20.10;43.99
75964;DHT22;65820;44.726;37.764;2023-02-02T05:15:23;20.11;43.82
75964;DHT22;65820;44.726;37.764;2023-02-02T05:16:24;20.11;43.70
75964;DHT22;65820;44.726;37.764;2023-02-02T05:17:26;20.11;43.37
75964;DHT22;65820;44.726;37.764;2023-02-02T05:18:34;20.12;43.67
75964;DHT22;65820;44.726;37.764;2023-02-02T05:19:36;20.13;43.42
75964;DHT22;65820;44.726;37.764;2023-02-02T05:20:37;20.12;43.68
75964;DHT22;65820;44.726;37.764;2023-02-02T05:21:38;20.11;43.64
75964;DHT22;65820;44.726;37.764;2023-02-02T05:22:40;20.10;43.56
75964;DHT22;65820;44.726;37.764;2023-02-02T05:23:42;20.12;43.50
75964;DHT22;65820;44.726;37.764;2023-02-02T05:24:43;20.12;43.83
75964;DHT22;65820;44.726;37.764;2023-02-02T05:25:50;20.12;43.59
75964;DHT22;65820;44.726;37.764;2023-02-02T05:26:52;20.12;43.55
75964;DHT22;65820;44.726;37.764;2023-02-02T05:27:58;20.11;43.68
75964;DHT22;65820;44.726;37.764;2023-02-02T05:28:59;20.13;43.59
75964;DHT22;65820;44.726;37.764;2023-02-02T05:30:01;20.12;43.70
75964;DHT22;65820;44.726;37.764;2023-02-02T05:31:06;20.12;43.51
75964;DHT22;65820;44.726;37.764;2023-02-02T05:32:07;20.13;43.42
75964;DHT22;65820;44.726;37.764;2023-02-02T05:33:08;20.13;43.26
75964;DHT22;65820;44.726;37.764;2023-02-02T05:34:10;20.14;43.44
75964;DHT22;65820;44.726;37.764;2023-02-02T05:35:13;20.13;43.30
75964;DHT22;65820;44.726;37.764;2023-02-02T05:36:15;20.13;43.55
75964;DHT22;65820;44.726;37.764;2023-02-02T05:37:16;20.13;43.39
75964;DHT22;65820;44.726;37.764;2023-02-02T05:38:17;20.14;43.26
75964;DHT22;65820;44.726;37.764;2023-02-02T05:39:19;20.14;43.17
75964;DHT22;65820;44.726;37.764;2023-02-02T05:40:20;20.14;43.11
75964;DHT22;65820;44.726;37.764;2023-02-02T05:41:21;20.14;43.10
75964;DHT22;65820;44.726;37.764;2023-02-02T05:42:23;20.15;43.26
75964;DHT22;65820;44.726;37.764;2023-02-02T05:43:25;20.16;43.17
75964;DHT22;65820;44.726;37.764;2023-02-02T05:44:29;20.16;43.19
75964;DHT22;65820;44.726;37.764;2023-02-02T05:45:31;20.16;43.25
75964;DHT22;65820;44.726;37.764;2023-02-02T05:46:32;20.15;43.10
75964;DHT22;65820;44.726;37.764;2023-02-02T05:47:34;20.16;43.11
75964;DHT22;65820;44.726;37.764;2023-02-02T05:48:35;20.17;42.99
75964;DHT22;65820;44.726;37.764;2023-02-02T05:49:36;20.17;42.91
75964;DHT22;65820;44.726;37.764;2023-02-02T05:50:38;20.16;43.16
75964;DHT22;65820;44.726;37.764;2023-02-02T05:51:46;20.17;42.93
75964;DHT22;65820;44.726;37.764;2023-02-02T05:52:48;20.17;43.03
75964;DHT22;65820;44.726;37.764;2023-02-02T05:53:49;20.17;42.90
75964;DHT22;65820;44.726;37.764;2023-02-02T05:54:51;20.19;42.87
75964;DHT22;65820;44.726;37.764;2023-02-02T05:55:52;20.17;42.90
75964;DHT22;65820;44.726;37.764;2023-02-02T05:56:53;20.18;42.90
75964;DHT22;65820;44.726;37.764;2023-02-02T05:57:55;20.17;42.98
75964;DHT22;65820;44.726;37.764;2023-02-02T05:58:57;20.18;42.93
75964;DHT22;65820;44.726;37.764;2023-02-02T06:00:00;20.18;43.00
75964;DHT22;65820;44.726;37.764;2023-02-02T06:01:01;20.19;42.79
75964;DHT22;65820;44.726;37.764;2023-02-02T06:02:02;20.18;42.78
75964;DHT22;65820;44.726;37.764;2023-02-02T06:03:04;20.19;42.85
75964;DHT22;65820;44.726;37.764;2023-02-02T06:04:05;20.19;42.81
75964;DHT22;65820;44.726;37.764;2023-02-02T06:05:06;20.18;42.79
75964;DHT22;65820;44.726;37.764;2023-02-02T06:06:08;20.20;42.77
75964;DHT22;65820;44.726;37.764;2023-02-02T06:07:12;20.19;42.77
75964;DHT22;65820;44.726;37.764;2023-02-02T06:08:14;20.19;42.71
75964;DHT22;65820;44.726;37.764;2023-02-02T06:09:15;20.20;42.74
75964;DHT22;65820;44.726;37.764;2023-02-02T06:10:16;20.19;42.71
75964;DHT22;65820;44.726;37.764;2023-02-02T06:11:18;20.19;42.77
75964;DHT22;65820;44.726;37.764;2023-02-02T06:12:19;20.20;42.66
75964;DHT22;65820;44.726;37.764;2023-02-02T06:13:21;20.20;42.68
75964;DHT22;65820;44.726;37.764;2023-02-02T06:14:22;20.19;42.67
75964;DHT22;65820;44.726;37.764;2023-02-02T06:15:24;20.20;42.65
75964;DHT22;65820;44.726;37.764;2023-02-02T06:16:27;20.20;42.63
75964;DHT22;65820;44.726;37.764;2023-02-02T06:17:28;20.20;42.93
75964;DHT22;65820;44.726;37.764;2023-02-02T06:18:29;20.20;42.59
75964;DHT22;65820;44.726;37.764;2023-02-02T06:19:31;20.20;42.58
75964;DHT22;65820;44.726;37.764;2023-02-02T06:20:33;20.21;42.87
75964;DHT22;65820;44.726;37.764;2023-02-02T06:21:34;20.20;42.71
75964;DHT22;65820;44.726;37.764;2023-02-02T06:22:37;20.21;42.55
75964;DHT22;65820;44.726;37.764;2023-02-02T06:23:39;20.20;42.52
75964;DHT22;65820;44.726;37.764;2023-02-02T06:24:46;20.21;42.72
75964;DHT22;65820;44.726;37.764;2023-02-02T06:25:47;20.22;42.69
75964;DHT22;65820;44.726;37.764;2023-02-02T06:26:48;20.20;42.69
75964;DHT22;65820;44.726;37.764;2023-02-02T06:27:54;20.21;42.81
75964;DHT22;65820;44.726;37.764;2023-02-02T06:28:55;20.21;42.88
75964;DHT22;65820;44.726;37.764;2023-02-02T06:29:57;20.20;42.95
75964;DHT22;65820;44.726;37.764;2023-02-02T06:31:06;20.20;42.52
75964;DHT22;65820;44.726;37.764;2023-02-02T06:32:07;20.19;42.60
75964;DHT22;65820;44.726;37.764;2023-02-02T06:33:08;20.20;42.73
75964;DHT22;65820;44.726;37.764;2023-02-02T06:34:10;20.20;42.39
75964;DHT22;65820;44.726;37.764;2023-02-02T06:35:14;20.19;42.80
75964;DHT22;65820;44.726;37.764;2023-02-02T06:36:18;20.20;42.73
75964;DHT22;65820;44.726;37.764;2023-02-02T06:37:20;20.20;42.67
75964;DHT22;65820;44.726;37.764;2023-02-02T06:38:21;20.20;43.05
75964;DHT22;65820;44.726;37.764;2023-02-02T06:39:22;20.18;43.00
75964;DHT22;65820;44.726;37.764;2023-02-02T06:40:25;20.19;42.58
75964;DHT22;65820;44.726;37.764;2023-02-02T06:41:26;20.18;42.99
75964;DHT22;65820;44.726;37.764;2023-02-02T06:42:28;20.18;42.56
75964;DHT22;65820;44.726;37.764;2023-02-02T06:43:30;20.19;42.51
75964;DHT22;65820;44.726;37.764;2023-02-02T06:44:31;20.18;42.83
75964;DHT22;65820;44.726;37.764;2023-02-02T06:45:33;20.19;42.83
75964;DHT22;65820;44.726;37.764;2023-02-02T06:46:41;20.18;42.42
75964;DHT22;65820;44.726;37.764;2023-02-02T06:47:42;20.19;42.96
75964;DHT22;65820;44.726;37.764;2023-02-02T06:48:43;20.18;42.92
75964;DHT22;65820;44.726;37.764;2023-02-02T06:49:45;20.18;42.96
75964;DHT22;65820;44.726;37.764;2023-02-02T06:50:47;20.19;42.98
75964;DHT22;65820;44.726;37.764;2023-02-02T06:51:48;20.19;43.06
75964;DHT22;65820;44.726;37.764;2023-02-02T06:52:50;20.18;42.85
75964;DHT22;65820;44.726;37.764;2023-02-02T06:53:54;20.18;42.55
75964;DHT22;65820;44.726;37.764;2023-02-02T06:55:01;20.18;42.65
75964;DHT22;65820;44.726;37.764;2023-02-02T06:56:11;20.18;42.79
75964;DHT22;65820;44.726;37.764;2023-02-02T06:57:12;20.18;42.87
75964;DHT22;65820;44.726;37.764;2023-02-02T06:58:14;20.18;42.69
75964;DHT22;65820;44.726;37.764;2023-02-02T06:59:15;20.20;42.83
75964;DHT22;65820;44.726;37.764;2023-02-02T07:00:17;20.19;42.47
75964;DHT22;65820;44.726;37.764;2023-02-02T07:01:18;20.18;42.34
75964;DHT22;65820;44.726;37.764;2023-02-02T07:02:22;20.19;42.57
75964;DHT22;65820;44.726;37.764;2023-02-02T07:03:24;20.18;42.43
75964;DHT22;65820;44.726;37.764;2023-02-02T07:04:25;20.19;42.57
75964;DHT22;65820;44.726;37.764;2023-02-02T07:05:26;20.18;42.48
75964;DHT22;65820;44.726;37.764;2023-02-02T07:06:28;20.19;42.94
75964;DHT22;65820;44.726;37.764;2023-02-02T07:07:33;20.18;42.48
75964;DHT22;65820;44.726;37.764;2023-02-02T07:08:35;20.19;42.77
75964;DHT22;65820;44.726;37.764;2023-02-02T07:09:36;20.20;42.41
75964;DHT22;65820;44.726;37.764;2023-02-02T07:10:37;20.19;42.84
75964;DHT22;65820;44.726;37.764;2023-02-02T07:11:39;20.19;42.39
75964;DHT22;65820;44.726;37.764;2023-02-02T07:12:40;20.20;42.76
75964;DHT22;65820;44.726;37.764;2023-02-02T07:13:45;20.20;43.10
75964;DHT22;65820;44.726;37.764;2023-02-02T07:14:46;20.19;42.93
75964;DHT22;65820;44.726;37.764;2023-02-02T07:15:48;20.19;42.56
75964;DHT22;65820;44.726;37.764;2023-02-02T07:16:49;20.19;43.06
75964;DHT22;65820;44.726;37.764;2023-02-02T07:17:50;20.20;42.80
75964;DHT22;65820;44.726;37.764;2023-02-02T07:18:54;20.20;42.86
75964;DHT22;65820;44.726;37.764;2023-02-02T07:19:58;20.19;42.79
75964;DHT22;65820;44.726;37.764;2023-02-02T07:21:00;20.20;42.45
75964;DHT22;65820;44.726;37.764;2023-02-02T07:22:01;20.20;42.71
75964;DHT22;65820;44.726;37.764;2023-02-02T07:23:03;20.20;42.90
75964;DHT22;65820;44.726;37.764;2023-02-02T07:24:05;20.20;42.39
75964;DHT22;65820;44.726;37.764;2023-02-02T07:25:07;20.20;42.38
75964;DHT22;65820;44.726;37.764;2023-02-02T07:26:09;20.20;42.78
75964;DHT22;65820;44.726;37.764;2023-02-02T07:27:12;20.21;42.55
75964;DHT22;65820;44.726;37.764;2023-02-02T07:28:16;20.20;42.45
75964;DHT22;65820;44.726;37.764;2023-02-02T07:29:17;20.21;42.45
75964;DHT22;65820;44.726;37.764;2023-02-02T07:30:19;20.21;42.33
75964;DHT22;65820;44.726;37.764;2023-02-02T07:31:23;20.22;42.39
75964;DHT22;65820;44.726;37.764;2023-02-02T07:32:25;20.22;42.60
75964;DHT22;65820;44.726;37.764;2023-02-02T07:33:26;20.21;42.91
75964;DHT22;65820;44.726;37.764;2023-02-02T07:34:28;20.21;42.58
75964;DHT22;65820;44.726;37.764;2023-02-02T07:35:29;20.24;42.83
75964;DHT22;65820;44.726;37.764;2023-02-02T07:36:31;20.24;42.57
75964;DHT22;65820;44.726;37.764;2023-02-02T07:37:32;20.22;42.65
75964;DHT22;65820;44.726;37.764;2023-02-02T07:38:33;20.22;42.40
75964;DHT22;65820;44.726;37.764;2023-02-02T07:39:35;20.24;42.30
75964;DHT22;65820;44.726;37.764;2023-02-02T07:40:36;20.22;42.63
75964;DHT22;65820;44.726;37.764;2023-02-02T07:41:38;20.24;42.34
75964;DHT22;65820;44.726;37.764;2023-02-02T07:42:48;20.22;42.25
75964;DHT22;65820;44.726;37.764;2023-02-02T07:43:50;20.25;42.29
75964;DHT22;65820;44.726;37.764;2023-02-02T07:44:51;20.24;42.26
75964;DHT22;65820;44.726;37.764;2023-02-02T07:45:52;20.24;42.47
75964;DHT22;65820;44.726;37.764;2023-02-02T07:46:54;20.25;42.43
75964;DHT22;65820;44.726;37.764;2023-02-02T07:47:59;20.25;42.70
75964;DHT22;65820;44.726;37.764;2023-02-02T07:49:00;20.25;42.36
75964;DHT22;65820;44.726;37.764;2023-02-02T07:50:07;20.25;42.30
75964;DHT22;65820;44.726;37.764;2023-02-02T07:51:15;20.26;42.33
75964;DHT22;65820;44.726;37.764;2023-02-02T07:52:17;20.26;42.23
75964;DHT22;65820;44.726;37.764;2023-02-02T07:53:18;20.25;42.32
75964;DHT22;65820;44.726;37.764;2023-02-02T07:54:21;20.27;42.60
75964;DHT22;65820;44.726;37.764;2023-02-02T07:55:22;20.27;42.36
75964;DHT22;65820;44.726;37.764;2023-02-02T07:56:26;20.27;42.06
75964;DHT22;65820;44.726;37.764;2023-02-02T07:57:30;20.27;42.15
75964;DHT22;65820;44.726;37.764;2023-02-02T07:58:31;20.27;42.29
75964;DHT22;65820;44.726;37.764;2023-02-02T07:59:32;20.29;42.22
75964;DHT22;65820;44.726;37.764;2023-02-02T08:00:34;20.28;42.23
75964;DHT22;65820;44.726;37.764;2023-02-02T08:01:35;20.28;42.20
75964;DHT22;65820;44.726;37.764;2023-02-02T08:02:36;20.29;42.19
75964;DHT22;65820;44.726;37.764;2023-02-02T08:03:38;20.28;42.58
75964;DHT22;65820;44.726;37.764;2023-02-02T08:04:40;20.29;42.11
75964;DHT22;65820;44.726;37.764;2023-02-02T08:05:41;20.30;42.30
75964;DHT22;65820;44.726;37.764;2023-02-02T08:06:43;20.30;42.10
75964;DHT22;65820;44.726;37.764;2023-02-02T08:07:45;20.29;42.25
75964;DHT22;65820;44.726;37.764;2023-02-02T08:08:47;20.30;42.29
75964;DHT22;65820;44.726;37.764;2023-02-02T08:09:49;20.30;42.29
75964;DHT22;65820;44.726;37.764;2023-02-02T08:10:54;20.30;42.03
75964;DHT22;65820;44.726;37.764;2023-02-02T08:11:55;20.31;42.08
75964;DHT22;65820;44.726;37.764;2023-02-02T08:13:01;20.30;42.10
75964;DHT22;65820;44.726;37.764;2023-02-02T08:14:03;20.30;42.15
75964;DHT22;65820;44.726;37.764;2023-02-02T08:15:05;20.31;42.11
75964;DHT22;65820;44.726;37.764;2023-02-02T08:16:08;20.33;42.21
75964;DHT22;65820;44.726;37.764;2023-02-02T08:17:09;20.33;42.10
75964;DHT22;65820;44.726;37.764;2023-02-02T08:18:11;20.31;42.26
75964;DHT22;65820;44.726;37.764;2023-02-02T08:19:12;20.33;42.14
75964;DHT22;65820;44.726;37.764;2023-02-02T08:20:13;20.33;42.32
75964;DHT22;65820;44.726;37.764;2023-02-02T08:21:16;20.33;42.17
75964;DHT22;65820;44.726;37.764;2023-02-02T08:22:17;20.33;42.05
75964;DHT22;65820;44.726;37.764;2023-02-02T08:23:19;20.35;42.04
75964;DHT22;65820;44.726;37.764;2023-02-02T08:24:23;20.34;42.14
75964;DHT22;65820;44.726;37.764;2023-02-02T08:25:25;20.34;42.04
75964;DHT22;65820;44.726;37.764;2023-02-02T08:26:28;20.34;42.10
75964;DHT22;65820;44.726;37.764;2023-02-02T08:27:30;20.34;42.34